EGFF/CWL METAR and TAF weather

Enter ICAO airport designator
Station Type Date Time Source
EGFF METAR 2019/06/18 12:50 UTC NOAA

EGFF 181250Z 12005KT 9999 -SHRA SCT041CB 14/12 Q1014


Station Type Date Time Source
EGFF Decoded METAR 2019/06/18 12:50 UTC NOAA

Cardiff-Wales Airport, United Kingdom (EGFF) 51-24N 003-21W 0M
Jun 18, 2019 - 08:50 AM EDT / 2019.06.18 1250 UTC
Wind: from the ESE (120 degrees) at 6 MPH (5 KT):0
Visibility: greater than 7 mile(s):0
Sky conditions: partly cloudy
Weather: light rain showers; Cumulonimbus clouds observed
Temperature: 57 F (14 C)
Dew Point: 53 F (12 C)
Relative Humidity: 87%
Pressure (altimeter): 29.94 in. Hg (1014 hPa)
ob: EGFF 181250Z 12005KT 9999 -SHRA SCT041CB 14/12 Q1014
cycle: 13

Station Type Date Time Source
EGFF TAF 2019/06/18 12:09 UTC NOAA

TAF EGFF 181056Z 1812/1912 13004KT 9999 FEW008 SCT040 PROB40
TEMPO 1812/1824 6000 RA BKN008
TEMPO 1900/1912 6000 RA SHRA BKN008 PROB40
TEMPO 1900/1911 +RA BKN004
BECMG 1908/1911 28010KT

Example: see airport list